sensor_id;sensor_type;location;lat;lon;timestamp;temperature;humidity
65598;SHT31;52267;51.984;20.956;2023-03-14T00:00:10;8.60;74.87
65598;SHT31;52267;51.984;20.956;2023-03-14T00:03:00;8.55;75.02
65598;SHT31;52267;51.984;20.956;2023-03-14T00:05:27;8.51;75.09
65598;SHT31;52267;51.984;20.956;2023-03-14T00:07:54;8.50;75.06
65598;SHT31;52267;51.984;20.956;2023-03-14T00:10:21;8.47;75.09
65598;SHT31;52267;51.984;20.956;2023-03-14T00:12:48;8.43;75.23
65598;SHT31;52267;51.984;20.956;2023-03-14T00:15:15;8.40;75.17
65598;SHT31;52267;51.984;20.956;2023-03-14T00:17:43;8.39;75.15
65598;SHT31;52267;51.984;20.956;2023-03-14T00:20:10;8.35;75.33
65598;SHT31;52267;51.984;20.956;2023-03-14T00:22:38;8.33;75.19
65598;SHT31;52267;51.984;20.956;2023-03-14T00:25:07;8.31;75.13
65598;SHT31;52267;51.984;20.956;2023-03-14T00:27:37;8.29;75.25
65598;SHT31;52267;51.984;20.956;2023-03-14T00:30:05;8.28;75.08
65598;SHT31;52267;51.984;20.956;2023-03-14T00:32:34;8.25;75.12
65598;SHT31;52267;51.984;20.956;2023-03-14T00:35:01;8.21;75.16
65598;SHT31;52267;51.984;20.956;2023-03-14T00:37:30;8.19;75.08
65598;SHT31;52267;51.984;20.956;2023-03-14T00:39:57;8.17;75.11
65598;SHT31;52267;51.984;20.956;2023-03-14T00:42:24;8.14;75.13
65598;SHT31;52267;51.984;20.956;2023-03-14T00:44:52;8.12;75.07
65598;SHT31;52267;51.984;20.956;2023-03-14T00:47:19;8.09;75.06
65598;SHT31;52267;51.984;20.956;2023-03-14T00:49:48;8.08;75.00
65598;SHT31;52267;51.984;20.956;2023-03-14T00:52:15;8.08;74.84
65598;SHT31;52267;51.984;20.956;2023-03-14T00:54:42;8.08;74.74
65598;SHT31;52267;51.984;20.956;2023-03-14T00:57:09;8.08;74.66
65598;SHT31;52267;51.984;20.956;2023-03-14T00:59:36;8.07;74.56
65598;SHT31;52267;51.984;20.956;2023-03-14T01:02:03;8.07;74.51
65598;SHT31;52267;51.984;20.956;2023-03-14T01:04:30;8.07;74.35
65598;SHT31;52267;51.984;20.956;2023-03-14T01:06:57;8.06;74.22
65598;SHT31;52267;51.984;20.956;2023-03-14T01:09:24;8.03;74.22
65598;SHT31;52267;51.984;20.956;2023-03-14T01:11:51;8.03;74.22
65598;SHT31;52267;51.984;20.956;2023-03-14T01:14:19;8.00;74.26
65598;SHT31;52267;51.984;20.956;2023-03-14T01:16:46;8.00;74.13
65598;SHT31;52267;51.984;20.956;2023-03-14T01:19:13;7.99;74.03
65598;SHT31;52267;51.984;20.956;2023-03-14T01:21:40;7.97;74.06
65598;SHT31;52267;51.984;20.956;2023-03-14T01:24:07;7.93;74.08
65598;SHT31;52267;51.984;20.956;2023-03-14T01:26:37;7.92;74.04
65598;SHT31;52267;51.984;20.956;2023-03-14T01:29:04;7.89;74.05
65598;SHT31;52267;51.984;20.956;2023-03-14T01:31:31;7.85;74.08
65598;SHT31;52267;51.984;20.956;2023-03-14T01:33:58;7.82;74.09
65598;SHT31;52267;51.984;20.956;2023-03-14T01:36:26;7.80;74.10
65598;SHT31;52267;51.984;20.956;2023-03-14T01:38:53;7.77;74.12
65598;SHT31;52267;51.984;20.956;2023-03-14T01:41:21;7.74;74.22
65598;SHT31;52267;51.984;20.956;2023-03-14T01:43:50;7.71;74.23
65598;SHT31;52267;51.984;20.956;2023-03-14T01:49:31;7.64;74.21
65598;SHT31;52267;51.984;20.956;2023-03-14T01:52:06;7.63;74.25
65598;SHT31;52267;51.984;20.956;2023-03-14T01:54:43;7.63;74.17
65598;SHT31;52267;51.984;20.956;2023-03-14T01:57:16;7.60;74.10
65598;SHT31;52267;51.984;20.956;2023-03-14T01:59:52;7.59;74.01
65598;SHT31;52267;51.984;20.956;2023-03-14T02:02:25;7.58;73.92
65598;SHT31;52267;51.984;20.956;2023-03-14T02:05:10;7.58;73.65
65598;SHT31;52267;51.984;20.956;2023-03-14T02:10:21;7.60;73.50
65598;SHT31;52267;51.984;20.956;2023-03-14T02:12:51;7.57;73.42
65598;SHT31;52267;51.984;20.956;2023-03-14T02:15:20;7.56;73.37
65598;SHT31;52267;51.984;20.956;2023-03-14T02:17:47;7.54;73.42
65598;SHT31;52267;51.984;20.956;2023-03-14T02:26:38;7.53;73.02
65598;SHT31;52267;51.984;20.956;2023-03-14T02:29:27;7.51;73.03
65598;SHT31;52267;51.984;20.956;2023-03-14T02:31:55;7.48;72.91
65598;SHT31;52267;51.984;20.956;2023-03-14T02:34:23;7.49;72.95
65598;SHT31;52267;51.984;20.956;2023-03-14T02:36:52;7.50;72.83
65598;SHT31;52267;51.984;20.956;2023-03-14T02:39:21;7.50;72.67
65598;SHT31;52267;51.984;20.956;2023-03-14T02:42:06;7.51;72.76
65598;SHT31;52267;51.984;20.956;2023-03-14T02:44:34;7.49;72.79
65598;SHT31;52267;51.984;20.956;2023-03-14T02:47:02;7.48;72.76
65598;SHT31;52267;51.984;20.956;2023-03-14T02:49:30;7.46;72.83
65598;SHT31;52267;51.984;20.956;2023-03-14T02:51:59;7.44;72.94
65598;SHT31;52267;51.984;20.956;2023-03-14T02:54:26;7.39;72.79
65598;SHT31;52267;51.984;20.956;2023-03-14T02:56:53;7.36;72.98
65598;SHT31;52267;51.984;20.956;2023-03-14T02:59:20;7.31;72.97
65598;SHT31;52267;51.984;20.956;2023-03-14T03:01:47;7.28;73.09
65598;SHT31;52267;51.984;20.956;2023-03-14T03:04:14;7.24;73.09
65598;SHT31;52267;51.984;20.956;2023-03-14T03:06:42;7.23;73.19
65598;SHT31;52267;51.984;20.956;2023-03-14T03:09:09;7.23;73.17
65598;SHT31;52267;51.984;20.956;2023-03-14T03:11:36;7.21;73.08
65598;SHT31;52267;51.984;20.956;2023-03-14T03:14:03;7.20;73.12
65598;SHT31;52267;51.984;20.956;2023-03-14T03:16:30;7.18;73.12
65598;SHT31;52267;51.984;20.956;2023-03-14T03:18:57;7.18;73.11
65598;SHT31;52267;51.984;20.956;2023-03-14T03:21:27;7.18;73.12
65598;SHT31;52267;51.984;20.956;2023-03-14T03:23:54;7.19;73.15
65598;SHT31;52267;51.984;20.956;2023-03-14T03:26:21;7.18;73.20
65598;SHT31;52267;51.984;20.956;2023-03-14T03:28:50;7.16;73.30
65598;SHT31;52267;51.984;20.956;2023-03-14T03:31:18;7.14;73.23
65598;SHT31;52267;51.984;20.956;2023-03-14T03:33:45;7.13;73.26
65598;SHT31;52267;51.984;20.956;2023-03-14T03:36:12;7.14;73.22
65598;SHT31;52267;51.984;20.956;2023-03-14T03:38:39;7.14;73.12
65598;SHT31;52267;51.984;20.956;2023-03-14T03:41:07;7.15;73.17
65598;SHT31;52267;51.984;20.956;2023-03-14T03:43:34;7.14;73.24
65598;SHT31;52267;51.984;20.956;2023-03-14T03:46:04;7.13;73.24
65598;SHT31;52267;51.984;20.956;2023-03-14T03:48:33;7.13;73.22
65598;SHT31;52267;51.984;20.956;2023-03-14T03:51:01;7.13;73.05
65598;SHT31;52267;51.984;20.956;2023-03-14T03:53:29;7.14;72.93
65598;SHT31;52267;51.984;20.956;2023-03-14T03:55:56;7.12;72.93
65598;SHT31;52267;51.984;20.956;2023-03-14T03:58:23;7.11;72.88
65598;SHT31;52267;51.984;20.956;2023-03-14T04:00:50;7.08;72.99
65598;SHT31;52267;51.984;20.956;2023-03-14T04:03:17;7.03;73.07
65598;SHT31;52267;51.984;20.956;2023-03-14T04:05:44;7.00;72.98
65598;SHT31;52267;51.984;20.956;2023-03-14T04:08:11;6.99;72.94
65598;SHT31;52267;51.984;20.956;2023-03-14T04:10:38;6.97;73.00
65598;SHT31;52267;51.984;20.956;2023-03-14T04:13:05;6.91;73.08
65598;SHT31;52267;51.984;20.956;2023-03-14T04:15:32;6.88;73.20
65598;SHT31;52267;51.984;20.956;2023-03-14T04:17:59;6.85;73.24
65598;SHT31;52267;51.984;20.956;2023-03-14T04:20:26;6.81;73.34
65598;SHT31;52267;51.984;20.956;2023-03-14T04:22:53;6.78;73.43
65598;SHT31;52267;51.984;20.956;2023-03-14T04:25:20;6.74;73.44
65598;SHT31;52267;51.984;20.956;2023-03-14T04:27:48;6.71;73.52
65598;SHT31;52267;51.984;20.956;2023-03-14T04:30:21;6.69;73.59
65598;SHT31;52267;51.984;20.956;2023-03-14T04:32:48;6.70;73.51
65598;SHT31;52267;51.984;20.956;2023-03-14T04:35:15;6.70;73.48
65598;SHT31;52267;51.984;20.956;2023-03-14T04:37:42;6.67;73.55
65598;SHT31;52267;51.984;20.956;2023-03-14T04:40:10;6.66;73.62
65598;SHT31;52267;51.984;20.956;2023-03-14T04:42:38;6.64;73.64
65598;SHT31;52267;51.984;20.956;2023-03-14T04:45:05;6.65;73.65
65598;SHT31;52267;51.984;20.956;2023-03-14T04:47:34;6.66;73.62
65598;SHT31;52267;51.984;20.956;2023-03-14T04:50:01;6.68;73.52
65598;SHT31;52267;51.984;20.956;2023-03-14T04:52:28;6.70;73.49
65598;SHT31;52267;51.984;20.956;2023-03-14T04:54:55;6.72;73.32
65598;SHT31;52267;51.984;20.956;2023-03-14T04:57:22;6.72;73.30
65598;SHT31;52267;51.984;20.956;2023-03-14T04:59:49;6.76;73.15
65598;SHT31;52267;51.984;20.956;2023-03-14T05:02:16;6.79;73.08
65598;SHT31;52267;51.984;20.956;2023-03-14T05:04:43;6.81;73.07
65598;SHT31;52267;51.984;20.956;2023-03-14T05:07:10;6.84;73.03
65598;SHT31;52267;51.984;20.956;2023-03-14T05:09:37;6.84;73.02
65598;SHT31;52267;51.984;20.956;2023-03-14T05:12:04;6.82;73.19
65598;SHT31;52267;51.984;20.956;2023-03-14T05:14:32;6.84;73.06
65598;SHT31;52267;51.984;20.956;2023-03-14T05:16:59;6.85;73.11
65598;SHT31;52267;51.984;20.956;2023-03-14T05:19:26;6.86;73.21
65598;SHT31;52267;51.984;20.956;2023-03-14T05:21:53;6.87;73.18
65598;SHT31;52267;51.984;20.956;2023-03-14T05:24:20;6.91;73.09
65598;SHT31;52267;51.984;20.956;2023-03-14T05:26:47;6.95;73.02
65598;SHT31;52267;51.984;20.956;2023-03-14T05:29:14;7.04;72.66
65598;SHT31;52267;51.984;20.956;2023-03-14T05:31:41;7.11;72.55
65598;SHT31;52267;51.984;20.956;2023-03-14T05:34:08;7.11;72.38
65598;SHT31;52267;51.984;20.956;2023-03-14T05:36:35;7.14;72.34
65598;SHT31;52267;51.984;20.956;2023-03-14T05:39:02;7.18;72.43
65598;SHT31;52267;51.984;20.956;2023-03-14T05:41:30;7.16;72.38
65598;SHT31;52267;51.984;20.956;2023-03-14T05:43:56;7.12;72.46
65598;SHT31;52267;51.984;20.956;2023-03-14T05:46:23;7.09;72.43
65598;SHT31;52267;51.984;20.956;2023-03-14T05:48:51;7.09;72.53
65598;SHT31;52267;51.984;20.956;2023-03-14T05:51:18;7.06;72.32
65598;SHT31;52267;51.984;20.956;2023-03-14T05:53:45;7.06;72.35
65598;SHT31;52267;51.984;20.956;2023-03-14T05:56:12;7.06;72.54
65598;SHT31;52267;51.984;20.956;2023-03-14T05:58:39;7.05;72.36
65598;SHT31;52267;51.984;20.956;2023-03-14T06:01:06;7.05;72.35
65598;SHT31;52267;51.984;20.956;2023-03-14T06:03:34;7.11;72.40
65598;SHT31;52267;51.984;20.956;2023-03-14T06:06:01;7.16;72.29
65598;SHT31;52267;51.984;20.956;2023-03-14T06:08:28;7.24;72.13
65598;SHT31;52267;51.984;20.956;2023-03-14T06:10:56;7.32;71.86
65598;SHT31;52267;51.984;20.956;2023-03-14T06:13:23;7.41;71.70
65598;SHT31;52267;51.984;20.956;2023-03-14T06:15:50;7.51;71.24
65598;SHT31;52267;51.984;20.956;2023-03-14T06:18:17;7.60;70.94
65598;SHT31;52267;51.984;20.956;2023-03-14T06:20:45;7.69;70.57
65598;SHT31;52267;51.984;20.956;2023-03-14T06:23:12;7.82;70.68
65598;SHT31;52267;51.984;20.956;2023-03-14T06:25:39;7.97;70.29
65598;SHT31;52267;51.984;20.956;2023-03-14T06:28:06;8.13;69.88
65598;SHT31;52267;51.984;20.956;2023-03-14T06:30:33;8.27;69.17
65598;SHT31;52267;51.984;20.956;2023-03-14T06:33:00;8.40;68.85
65598;SHT31;52267;51.984;20.956;2023-03-14T06:35:27;8.55;68.71
65598;SHT31;52267;51.984;20.956;2023-03-14T06:37:54;8.70;68.40
65598;SHT31;52267;51.984;20.956;2023-03-14T06:40:21;8.84;67.98
65598;SHT31;52267;51.984;20.956;2023-03-14T06:42:48;8.99;67.26
65598;SHT31;52267;51.984;20.956;2023-03-14T06:45:16;9.13;66.91
65598;SHT31;52267;51.984;20.956;2023-03-14T06:47:43;9.24;66.71
65598;SHT31;52267;51.984;20.956;2023-03-14T06:50:10;9.36;66.20
65598;SHT31;52267;51.984;20.956;2023-03-14T06:52:37;9.48;65.77
65598;SHT31;52267;51.984;20.956;2023-03-14T06:55:07;9.62;65.66
65598;SHT31;52267;51.984;20.956;2023-03-14T06:57:35;9.83;65.18
65598;SHT31;52267;51.984;20.956;2023-03-14T07:00:03;10.07;64.87
65598;SHT31;52267;51.984;20.956;2023-03-14T07:02:31;10.29;63.99
65598;SHT31;52267;51.984;20.956;2023-03-14T07:04:58;10.52;63.53
65598;SHT31;52267;51.984;20.956;2023-03-14T07:07:27;10.73;62.50
65598;SHT31;52267;51.984;20.956;2023-03-14T07:09:55;10.89;62.45
65598;SHT31;52267;51.984;20.956;2023-03-14T07:12:22;11.05;61.65
65598;SHT31;52267;51.984;20.956;2023-03-14T07:14:50;11.26;61.69
65598;SHT31;52267;51.984;20.956;2023-03-14T07:17:17;11.41;60.76
65598;SHT31;52267;51.984;20.956;2023-03-14T07:19:44;11.51;60.94
65598;SHT31;52267;51.984;20.956;2023-03-14T07:22:11;11.63;60.84
65598;SHT31;52267;51.984;20.956;2023-03-14T07:24:38;11.76;60.65
65598;SHT31;52267;51.984;20.956;2023-03-14T07:27:05;11.83;59.76
65598;SHT31;52267;51.984;20.956;2023-03-14T07:29:32;11.98;59.31
65598;SHT31;52267;51.984;20.956;2023-03-14T07:31:59;12.18;59.88
65598;SHT31;52267;51.984;20.956;2023-03-14T07:34:26;12.29;58.55
65598;SHT31;52267;51.984;20.956;2023-03-14T07:36:53;12.35;59.06
65598;SHT31;52267;51.984;20.956;2023-03-14T07:39:20;12.35;59.03
65598;SHT31;52267;51.984;20.956;2023-03-14T07:41:48;12.35;58.31
65598;SHT31;52267;51.984;20.956;2023-03-14T07:44:15;12.48;58.71
65598;SHT31;52267;51.984;20.956;2023-03-14T07:46:42;12.67;58.72
65598;SHT31;52267;51.984;20.956;2023-03-14T07:49:09;12.92;57.55
65598;SHT31;52267;51.984;20.956;2023-03-14T07:51:36;13.09;56.97
65598;SHT31;52267;51.984;20.956;2023-03-14T07:54:03;13.27;57.23
65598;SHT31;52267;51.984;20.956;2023-03-14T07:56:30;13.37;57.50
65598;SHT31;52267;51.984;20.956;2023-03-14T07:58:57;13.42;57.43
65598;SHT31;52267;51.984;20.956;2023-03-14T08:01:24;13.30;56.40
65598;SHT31;52267;51.984;20.956;2023-03-14T08:03:51;13.16;56.92
65598;SHT31;52267;51.984;20.956;2023-03-14T08:06:18;13.16;57.07
65598;SHT31;52267;51.984;20.956;2023-03-14T08:08:46;13.13;56.58
65598;SHT31;52267;51.984;20.956;2023-03-14T08:11:13;13.21;57.13
65598;SHT31;52267;51.984;20.956;2023-03-14T08:13:40;13.23;56.92
65598;SHT31;52267;51.984;20.956;2023-03-14T08:16:07;13.37;57.08
65598;SHT31;52267;51.984;20.956;2023-03-14T08:18:35;13.49;56.94
65598;SHT31;52267;51.984;20.956;2023-03-14T08:21:02;13.51;55.73
65598;SHT31;52267;51.984;20.956;2023-03-14T08:23:29;13.47;55.64
65598;SHT31;52267;51.984;20.956;2023-03-14T08:25:56;13.47;55.96
65598;SHT31;52267;51.984;20.956;2023-03-14T08:28:23;13.54;55.63
65598;SHT31;52267;51.984;20.956;2023-03-14T08:30:50;13.54;55.11
65598;SHT31;52267;51.984;20.956;2023-03-14T08:33:17;13.61;55.36
65598;SHT31;52267;51.984;20.956;2023-03-14T08:35:44;13.63;54.93
65598;SHT31;52267;51.984;20.956;2023-03-14T08:38:11;13.74;55.57
65598;SHT31;52267;51.984;20.956;2023-03-14T08:40:38;13.88;56.02
65598;SHT31;52267;51.984;20.956;2023-03-14T08:43:05;14.13;56.19
65598;SHT31;52267;51.984;20.956;2023-03-14T08:45:32;14.38;55.92
65598;SHT31;52267;51.984;20.956;2023-03-14T08:48:00;14.58;55.32
65598;SHT31;52267;51.984;20.956;2023-03-14T08:50:27;14.66;53.07
65598;SHT31;52267;51.984;20.956;2023-03-14T08:52:54;14.69;53.25
65598;SHT31;52267;51.984;20.956;2023-03-14T08:55:21;14.76;53.93
65598;SHT31;52267;51.984;20.956;2023-03-14T08:57:48;14.89;53.18
65598;SHT31;52267;51.984;20.956;2023-03-14T09:00:15;14.90;52.43
65598;SHT31;52267;51.984;20.956;2023-03-14T09:02:43;15.00;52.44
65598;SHT31;52267;51.984;20.956;2023-03-14T09:05:10;15.15;52.99
65598;SHT31;52267;51.984;20.956;2023-03-14T09:07:38;15.33;52.74
65598;SHT31;52267;51.984;20.956;2023-03-14T09:10:06;15.43;52.04
65598;SHT31;52267;51.984;20.956;2023-03-14T09:12:35;15.46;51.60
65598;SHT31;52267;51.984;20.956;2023-03-14T09:15:02;15.54;51.61
65598;SHT31;52267;51.984;20.956;2023-03-14T09:17:30;15.44;52.01
65598;SHT31;52267;51.984;20.956;2023-03-14T09:19:57;15.28;51.85
65598;SHT31;52267;51.984;20.956;2023-03-14T09:22:24;14.97;51.56
65598;SHT31;52267;51.984;20.956;2023-03-14T09:24:52;14.97;52.01
65598;SHT31;52267;51.984;20.956;2023-03-14T09:27:19;15.15;52.28
65598;SHT31;52267;51.984;20.956;2023-03-14T09:29:46;15.32;51.80
65598;SHT31;52267;51.984;20.956;2023-03-14T09:32:13;15.49;52.42
65598;SHT31;52267;51.984;20.956;2023-03-14T09:34:40;15.62;52.10
65598;SHT31;52267;51.984;20.956;2023-03-14T09:37:07;15.77;51.57
65598;SHT31;52267;51.984;20.956;2023-03-14T09:39:34;15.93;51.09
65598;SHT31;52267;51.984;20.956;2023-03-14T09:42:03;16.00;50.63
65598;SHT31;52267;51.984;20.956;2023-03-14T09:44:36;16.08;51.08
65598;SHT31;52267;51.984;20.956;2023-03-14T09:47:16;16.35;51.16
65598;SHT31;52267;51.984;20.956;2023-03-14T09:49:46;16.46;49.90
65598;SHT31;52267;51.984;20.956;2023-03-14T09:54:54;16.39;49.10
65598;SHT31;52267;51.984;20.956;2023-03-14T09:57:27;16.45;49.12
65598;SHT31;52267;51.984;20.956;2023-03-14T09:59:56;16.46;49.05
65598;SHT31;52267;51.984;20.956;2023-03-14T10:02:40;16.37;48.73
65598;SHT31;52267;51.984;20.956;2023-03-14T10:05:16;16.31;49.17
65598;SHT31;52267;51.984;20.956;2023-03-14T10:07:47;16.24;48.75
65598;SHT31;52267;51.984;20.956;2023-03-14T10:10:19;16.16;49.32
65598;SHT31;52267;51.984;20.956;2023-03-14T10:15:55;16.26;49.79
65598;SHT31;52267;51.984;20.956;2023-03-14T10:18:30;16.25;49.49
65598;SHT31;52267;51.984;20.956;2023-03-14T10:21:02;16.15;49.37
65598;SHT31;52267;51.984;20.956;2023-03-14T10:23:44;16.15;49.37
65598;SHT31;52267;51.984;20.956;2023-03-14T10:26:13;16.24;49.18
65598;SHT31;52267;51.984;20.956;2023-03-14T10:28:46;16.37;48.94
65598;SHT31;52267;51.984;20.956;2023-03-14T10:31:18;16.50;49.09
65598;SHT31;52267;51.984;20.956;2023-03-14T10:34:12;16.47;48.73
65598;SHT31;52267;51.984;20.956;2023-03-14T10:36:56;16.46;48.48
65598;SHT31;52267;51.984;20.956;2023-03-14T10:39:48;16.27;48.47
65598;SHT31;52267;51.984;20.956;2023-03-14T10:45:02;16.02;48.98
65598;SHT31;52267;51.984;20.956;2023-03-14T10:47:34;16.03;49.26
65598;SHT31;52267;51.984;20.956;2023-03-14T10:52:51;15.97;49.53
65598;SHT31;52267;51.984;20.956;2023-03-14T10:55:21;15.88;49.40
65598;SHT31;52267;51.984;20.956;2023-03-14T10:57:52;15.75;49.79
65598;SHT31;52267;51.984;20.956;2023-03-14T11:00:21;15.65;50.21
65598;SHT31;52267;51.984;20.956;2023-03-14T11:03:03;15.59;50.12
65598;SHT31;52267;51.984;20.956;2023-03-14T11:08:24;15.60;50.64
65598;SHT31;52267;51.984;20.956;2023-03-14T11:11:18;15.70;50.61
65598;SHT31;52267;51.984;20.956;2023-03-14T11:13:54;15.75;50.68
65598;SHT31;52267;51.984;20.956;2023-03-14T11:16:50;15.86;50.59
65598;SHT31;52267;51.984;20.956;2023-03-14T11:22:28;15.88;50.47
65598;SHT31;52267;51.984;20.956;2023-03-14T11:28:00;15.95;50.72
65598;SHT31;52267;51.984;20.956;2023-03-14T11:36:39;15.60;51.23
65598;SHT31;52267;51.984;20.956;2023-03-14T11:39:14;15.52;51.70
65598;SHT31;52267;51.984;20.956;2023-03-14T11:41:47;15.45;51.85
65598;SHT31;52267;51.984;20.956;2023-03-14T11:44:19;15.37;51.91
65598;SHT31;52267;51.984;20.956;2023-03-14T11:47:34;15.25;52.05
65598;SHT31;52267;51.984;20.956;2023-03-14T11:50:07;15.11;52.34
65598;SHT31;52267;51.984;20.956;2023-03-14T11:52:56;15.04;52.62
65598;SHT31;52267;51.984;20.956;2023-03-14T11:55:31;15.03;52.83
65598;SHT31;52267;51.984;20.956;2023-03-14T11:58:05;15.05;52.81
65598;SHT31;52267;51.984;20.956;2023-03-14T12:00:40;15.06;52.84
65598;SHT31;52267;51.984;20.956;2023-03-14T12:06:05;15.10;53.22
65598;SHT31;52267;51.984;20.956;2023-03-14T12:08:53;15.16;53.42
65598;SHT31;52267;51.984;20.956;2023-03-14T12:14:18;15.28;53.27
65598;SHT31;52267;51.984;20.956;2023-03-14T12:16:53;15.27;52.89
65598;SHT31;52267;51.984;20.956;2023-03-14T12:19:47;15.22;52.56
65598;SHT31;52267;51.984;20.956;2023-03-14T12:22:27;15.16;52.52
65598;SHT31;52267;51.984;20.956;2023-03-14T12:25:05;15.06;53.12
65598;SHT31;52267;51.984;20.956;2023-03-14T12:35:44;14.80;54.02
65598;SHT31;52267;51.984;20.956;2023-03-14T12:43:43;14.68;54.56
65598;SHT31;52267;51.984;20.956;2023-03-14T12:49:10;14.49;54.71
65598;SHT31;52267;51.984;20.956;2023-03-14T12:51:37;14.38;54.72
65598;SHT31;52267;51.984;20.956;2023-03-14T13:00:17;14.03;55.80
65598;SHT31;52267;51.984;20.956;2023-03-14T13:02:47;13.91;56.46
65598;SHT31;52267;51.984;20.956;2023-03-14T13:05:20;13.81;57.24
65598;SHT31;52267;51.984;20.956;2023-03-14T13:10:20;13.67;58.32
65598;SHT31;52267;51.984;20.956;2023-03-14T13:13:44;13.57;59.05
65598;SHT31;52267;51.984;20.956;2023-03-14T13:15:55;13.46;59.64
65598;SHT31;52267;51.984;20.956;2023-03-14T13:21:03;13.22;60.90
65598;SHT31;52267;51.984;20.956;2023-03-14T13:23:38;13.13;61.00
65598;SHT31;52267;51.984;20.956;2023-03-14T13:26:10;13.04;61.42
65598;SHT31;52267;51.984;20.956;2023-03-14T13:28:41;12.97;62.02
65598;SHT31;52267;51.984;20.956;2023-03-14T13:31:22;12.90;62.29
65598;SHT31;52267;51.984;20.956;2023-03-14T13:33:58;12.87;62.21
65598;SHT31;52267;51.984;20.956;2023-03-14T13:36:35;12.82;62.93
65598;SHT31;52267;51.984;20.956;2023-03-14T13:39:03;12.78;62.55
65598;SHT31;52267;51.984;20.956;2023-03-14T13:41:39;12.73;63.15
65598;SHT31;52267;51.984;20.956;2023-03-14T13:44:21;12.68;63.46
65598;SHT31;52267;51.984;20.956;2023-03-14T13:46:57;12.61;63.96
65598;SHT31;52267;51.984;20.956;2023-03-14T13:49:28;12.57;63.76
65598;SHT31;52267;51.984;20.956;2023-03-14T13:52:00;12.51;64.61
65598;SHT31;52267;51.984;20.956;2023-03-14T13:54:29;12.40;65.35
65598;SHT31;52267;51.984;20.956;2023-03-14T13:57:02;12.36;65.24
65598;SHT31;52267;51.984;20.956;2023-03-14T13:59:33;12.30;66.08
65598;SHT31;52267;51.984;20.956;2023-03-14T14:02:06;12.25;66.24
65598;SHT31;52267;51.984;20.956;2023-03-14T14:04:40;12.18;66.93
65598;SHT31;52267;51.984;20.956;2023-03-14T14:07:09;12.08;68.29
65598;SHT31;52267;51.984;20.956;2023-03-14T14:09:43;11.99;67.82
65598;SHT31;52267;51.984;20.956;2023-03-14T14:15:14;11.79;69.24
65598;SHT31;52267;51.984;20.956;2023-03-14T14:17:49;11.73;69.67
65598;SHT31;52267;51.984;20.956;2023-03-14T14:22:58;11.57;71.78
65598;SHT31;52267;51.984;20.956;2023-03-14T14:25:51;11.47;71.07
65598;SHT31;52267;51.984;20.956;2023-03-14T14:28:29;11.40;71.01
65598;SHT31;52267;51.984;20.956;2023-03-14T14:31:33;11.34;72.44
65598;SHT31;52267;51.984;20.956;2023-03-14T14:36:24;11.26;72.83
65598;SHT31;52267;51.984;20.956;2023-03-14T14:39:00;11.19;74.11
65598;SHT31;52267;51.984;20.956;2023-03-14T14:41:41;11.13;74.08
65598;SHT31;52267;51.984;20.956;2023-03-14T14:44:13;11.07;74.48
65598;SHT31;52267;51.984;20.956;2023-03-14T14:46:45;11.01;73.71
65598;SHT31;52267;51.984;20.956;2023-03-14T14:49:13;11.00;73.49
65598;SHT31;52267;51.984;20.956;2023-03-14T14:51:48;11.01;73.62
65598;SHT31;52267;51.984;20.956;2023-03-14T14:54:18;10.97;74.54
65598;SHT31;52267;51.984;20.956;2023-03-14T14:57:01;10.92;74.82
65598;SHT31;52267;51.984;20.956;2023-03-14T14:59:32;10.91;74.73
65598;SHT31;52267;51.984;20.956;2023-03-14T15:05:04;10.88;75.60
65598;SHT31;52267;51.984;20.956;2023-03-14T15:07:31;10.83;75.35
65598;SHT31;52267;51.984;20.956;2023-03-14T15:09:58;10.84;75.14
65598;SHT31;52267;51.984;20.956;2023-03-14T15:12:26;10.86;75.19
65598;SHT31;52267;51.984;20.956;2023-03-14T15:14:53;10.84;75.39
65598;SHT31;52267;51.984;20.956;2023-03-14T15:17:23;10.83;76.11
65598;SHT31;52267;51.984;20.956;2023-03-14T15:19:50;10.79;75.69
65598;SHT31;52267;51.984;20.956;2023-03-14T15:22:17;10.78;75.82
65598;SHT31;52267;51.984;20.956;2023-03-14T15:24:45;10.74;76.26
65598;SHT31;52267;51.984;20.956;2023-03-14T15:27:13;10.74;76.22
65598;SHT31;52267;51.984;20.956;2023-03-14T15:29:42;10.72;76.84
65598;SHT31;52267;51.984;20.956;2023-03-14T15:32:11;10.72;76.49
65598;SHT31;52267;51.984;20.956;2023-03-14T15:34:40;10.72;75.87
65598;SHT31;52267;51.984;20.956;2023-03-14T15:37:11;10.72;76.11
65598;SHT31;52267;51.984;20.956;2023-03-14T15:39:39;10.71;75.91
65598;SHT31;52267;51.984;20.956;2023-03-14T15:42:07;10.72;76.24
65598;SHT31;52267;51.984;20.956;2023-03-14T15:44:34;10.70;76.56
65598;SHT31;52267;51.984;20.956;2023-03-14T15:47:01;10.69;77.48
65598;SHT31;52267;51.984;20.956;2023-03-14T15:49:29;10.70;76.80
65598;SHT31;52267;51.984;20.956;2023-03-14T15:51:57;10.71;75.87
65598;SHT31;52267;51.984;20.956;2023-03-14T15:54:25;10.70;76.31
65598;SHT31;52267;51.984;20.956;2023-03-14T15:56:55;10.69;76.08
65598;SHT31;52267;51.984;20.956;2023-03-14T15:59:23;10.68;76.96
65598;SHT31;52267;51.984;20.956;2023-03-14T16:01:50;10.68;76.54
65598;SHT31;52267;51.984;20.956;2023-03-14T16:04:17;10.68;77.49
65598;SHT31;52267;51.984;20.956;2023-03-14T16:06:45;10.67;76.41
65598;SHT31;52267;51.984;20.956;2023-03-14T16:09:12;10.68;76.46
65598;SHT31;52267;51.984;20.956;2023-03-14T16:11:40;10.68;76.65
65598;SHT31;52267;51.984;20.956;2023-03-14T16:14:07;10.66;76.77
65598;SHT31;52267;51.984;20.956;2023-03-14T16:16:34;10.65;77.01
65598;SHT31;52267;51.984;20.956;2023-03-14T16:19:02;10.63;77.70
65598;SHT31;52267;51.984;20.956;2023-03-14T16:21:31;10.61;77.47
65598;SHT31;52267;51.984;20.956;2023-03-14T16:23:59;10.59;77.77
65598;SHT31;52267;51.984;20.956;2023-03-14T16:26:28;10.57;77.95
65598;SHT31;52267;51.984;20.956;2023-03-14T16:28:55;10.57;77.85
65598;SHT31;52267;51.984;20.956;2023-03-14T16:31:22;10.59;77.36
65598;SHT31;52267;51.984;20.956;2023-03-14T16:33:51;10.57;78.00
65598;SHT31;52267;51.984;20.956;2023-03-14T16:36:19;10.57;77.66
65598;SHT31;52267;51.984;20.956;2023-03-14T16:38:46;10.55;77.94
65598;SHT31;52267;51.984;20.956;2023-03-14T16:41:15;10.56;77.51
65598;SHT31;52267;51.984;20.956;2023-03-14T16:43:45;10.57;77.76
65598;SHT31;52267;51.984;20.956;2023-03-14T16:46:18;10.57;77.56
65598;SHT31;52267;51.984;20.956;2023-03-14T16:48:47;10.57;77.64
65598;SHT31;52267;51.984;20.956;2023-03-14T16:51:14;10.58;77.22
65598;SHT31;52267;51.984;20.956;2023-03-14T16:53:43;10.57;77.30
65598;SHT31;52267;51.984;20.956;2023-03-14T16:56:11;10.59;76.73
65598;SHT31;52267;51.984;20.956;2023-03-14T16:58:39;10.60;76.77
65598;SHT31;52267;51.984;20.956;2023-03-14T17:01:09;10.58;76.90